Time;durP1;ratioP1;P1;durP2;ratioP2;P2;SDS_P1;SDS_P2;PMS_P1;PMS_P2;Temp;Humidity;BMP_temperature;BMP_pressure;BME280_temperature;BME280_humidity;BME280_pressure;Samples;Min_cycle;Max_cycle;Signal;HPM_P1;HPM_P2
2021/09/06 00:00:32;;;;;;;12.90;11.67;;;;;22.70;101118.00;;;;2065141;28;20207;-56
2021/09/06 00:01:32;;;;;;;13.10;12.00;;;;;22.70;101119.00;;;;2062730;28;20219;-56
2021/09/06 00:02:32;;;;;;;12.00;10.90;;;;;22.70;101116.00;;;;2062504;28;20211;-56
2021/09/06 00:03:33;;;;;;;12.73;11.63;;;;;22.70;101115.00;;;;2063102;28;20226;-56
2021/09/06 00:04:33;;;;;;;12.30;11.20;;;;;22.70;101111.00;;;;2062835;28;20305;-55
2021/09/06 00:05:33;;;;;;;12.90;11.70;;;;;22.70;101119.00;;;;2062861;28;20225;-55
2021/09/06 00:06:34;;;;;;;12.53;11.43;;;;;22.70;101112.00;;;;2063010;28;20303;-55
2021/09/06 00:07:35;;;;;;;13.23;12.10;;;;;22.70;101117.00;;;;2062834;28;20206;-55
2021/09/06 00:08:35;;;;;;;13.13;11.90;;;;;22.70;101113.00;;;;2062821;28;20222;-55
2021/09/06 00:09:35;;;;;;;11.90;10.80;;;;;22.70;101109.00;;;;2062418;28;20207;-54
2021/09/06 00:10:39;;;;;;;13.40;12.07;;;;;22.70;101121.00;;;;2062887;28;20226;-54
2021/09/06 00:11:39;;;;;;;13.63;12.15;;;;;22.60;101119.00;;;;2062483;28;20219;-56
2021/09/06 00:12:40;;;;;;;12.50;11.30;;;;;22.60;101116.00;;;;2063012;28;20238;-55
2021/09/06 00:13:40;;;;;;;18.23;12.27;;;;;22.60;101117.00;;;;2062980;28;20326;-55
2021/09/06 00:14:40;;;;;;;14.10;11.80;;;;;22.60;101116.00;;;;2062359;28;20226;-57
2021/09/06 00:15:41;;;;;;;12.33;11.03;;;;;22.70;101116.00;;;;2062101;28;20219;-56
2021/09/06 00:16:41;;;;;;;15.23;13.03;;;;;22.70;101118.00;;;;2062206;28;20785;-57
2021/09/06 00:17:41;;;;;;;14.57;12.10;;;;;22.70;101122.00;;;;2062187;28;20207;-57
2021/09/06 00:18:42;;;;;;;13.33;12.03;;;;;22.70;101118.00;;;;2062762;28;20215;-55
2021/09/06 00:19:42;;;;;;;13.77;12.53;;;;;22.70;101123.00;;;;2062021;28;20730;-55
2021/09/06 00:20:43;;;;;;;12.60;11.30;;;;;22.70;101116.00;;;;2062054;28;20215;-56
2021/09/06 00:21:43;;;;;;;13.20;11.10;;;;;22.70;101117.00;;;;2062534;28;20273;-56
2021/09/06 00:22:43;;;;;;;12.53;11.23;;;;;22.70;101119.00;;;;2062951;28;20298;-57
2021/09/06 00:23:44;;;;;;;12.80;11.50;;;;;22.70;101113.00;;;;2062827;28;20235;-57
2021/09/06 00:24:44;;;;;;;12.87;11.63;;;;;22.70;101122.00;;;;2062865;28;20223;-57
2021/09/06 00:25:45;;;;;;;12.73;11.53;;;;;22.70;101118.00;;;;2062734;28;20211;-56
2021/09/06 00:26:45;;;;;;;14.63;11.67;;;;;22.70;101117.00;;;;2062789;28;20210;-55
2021/09/06 00:27:45;;;;;;;13.30;12.00;;;;;22.70;101121.00;;;;2062877;28;20310;-57
2021/09/06 00:28:46;;;;;;;13.93;12.63;;;;;22.70;101121.00;;;;2067640;28;20288;-57
2021/09/06 00:29:46;;;;;;;13.87;12.57;;;;;22.70;101120.00;;;;2070684;28;20305;-56
2021/09/06 00:30:46;;;;;;;13.70;12.40;;;;;22.70;101121.00;;;;2069041;28;20610;-56
2021/09/06 00:31:47;;;;;;;13.53;12.30;;;;;22.70;101126.00;;;;2063039;28;20239;-56
2021/09/06 00:32:47;;;;;;;13.97;12.57;;;;;22.70;101124.00;;;;2062825;28;20218;-55
2021/09/06 00:33:47;;;;;;;13.80;11.97;;;;;22.70;101120.00;;;;2062607;28;20218;-57
2021/09/06 00:34:48;;;;;;;12.43;11.27;;;;;22.70;101120.00;;;;2062890;28;20222;-56
2021/09/06 00:35:48;;;;;;;11.90;10.80;;;;;22.70;101120.00;;;;2062767;28;20238;-57
2021/09/06 00:36:49;;;;;;;13.50;12.07;;;;;22.70;101128.00;;;;2062808;28;20650;-55
2021/09/06 00:37:49;;;;;;;13.40;12.20;;;;;22.70;101122.00;;;;2062823;28;20949;-56
2021/09/06 00:38:49;;;;;;;13.57;12.27;;;;;22.70;101119.00;;;;2062429;28;20219;-55
2021/09/06 00:39:50;;;;;;;12.70;11.50;;;;;22.70;101122.00;;;;2062831;28;20242;-55
2021/09/06 00:40:50;;;;;;;14.40;12.33;;;;;22.70;101120.00;;;;2062685;28;21332;-56
2021/09/06 00:41:51;;;;;;;13.13;11.90;;;;;22.70;101121.00;;;;2062621;28;20296;-55
2021/09/06 00:42:51;;;;;;;13.53;12.33;;;;;22.70;101130.00;;;;2062852;28;20223;-56
2021/09/06 00:43:52;;;;;;;11.97;10.77;;;;;22.70;101121.00;;;;2062744;28;20219;-55
2021/09/06 00:44:53;;;;;;;12.30;11.10;;;;;22.70;101122.00;;;;2062707;28;20238;-55
2021/09/06 00:45:53;;;;;;;12.80;11.17;;;;;22.70;101128.00;;;;2062848;28;20533;-54
2021/09/06 00:46:56;;;;;;;13.00;11.13;;;;;22.70;101125.00;;;;2062643;28;20215;-54
2021/09/06 00:47:56;;;;;;;13.05;11.70;;;;;22.70;101132.00;;;;2062715;28;20218;-57
2021/09/06 00:48:57;;;;;;;12.77;11.47;;;;;22.70;101128.00;;;;2061929;28;20576;-56
2021/09/06 00:49:57;;;;;;;14.10;12.70;;;;;22.70;101079.00;;;;2062748;28;20217;-56
2021/09/06 00:50:57;;;;;;;12.20;11.00;;;;;22.70;101119.00;;;;2062629;28;20302;-54
2021/09/06 00:51:58;;;;;;;12.20;11.00;;;;;22.70;101127.00;;;;2061861;28;20231;-55
2021/09/06 00:52:58;;;;;;;12.40;11.20;;;;;22.70;101127.00;;;;2062060;28;20211;-55
2021/09/06 00:53:58;;;;;;;15.27;12.40;;;;;22.80;101118.00;;;;2062151;28;20219;-55
2021/09/06 00:54:59;;;;;;;12.47;11.30;;;;;22.70;101121.00;;;;2062098;28;20673;-54
2021/09/06 00:55:59;;;;;;;11.03;10.03;;;;;22.70;101129.00;;;;2053400;28;20216;-54
2021/09/06 00:56:59;;;;;;;11.63;10.63;;;;;22.80;101123.00;;;;2062075;28;20245;-54
2021/09/06 00:58:00;;;;;;;12.30;11.20;;;;;22.80;101128.00;;;;2062079;28;20643;-55
2021/09/06 00:59:01;;;;;;;12.73;11.40;;;;;22.80;101130.00;;;;2061581;28;20221;-55
2021/09/06 01:00:03;;;;;;;12.30;11.10;;;;;22.80;101124.00;;;;2068231;28;20260;-56
2021/09/06 01:01:03;;;;;;;11.95;10.80;;;;;22.80;101126.00;;;;2061009;28;20230;-57
2021/09/06 01:02:03;;;;;;;13.90;11.90;;;;;22.80;101127.00;;;;2062633;28;20249;-54
2021/09/06 01:03:04;;;;;;;12.77;11.50;;;;;22.80;101127.00;;;;2062506;28;20222;-55
2021/09/06 01:04:04;;;;;;;13.27;11.43;;;;;22.80;101116.00;;;;2062262;28;20227;-60
2021/09/06 01:05:05;;;;;;;12.70;11.40;;;;;22.80;101123.00;;;;2062750;28;20701;-58
2021/09/06 01:06:05;;;;;;;12.23;11.03;;;;;22.80;101126.00;;;;2062528;28;20907;-56
2021/09/06 01:07:06;;;;;;;11.47;10.37;;;;;22.80;101119.00;;;;2062793;28;20454;-54
2021/09/06 01:08:06;;;;;;;14.00;12.03;;;;;22.80;101120.00;;;;2062587;28;20699;-57
2021/09/06 01:09:07;;;;;;;13.43;11.93;;;;;22.70;101122.00;;;;2062453;28;20865;-57
2021/09/06 01:10:09;;;;;;;13.90;11.93;;;;;22.70;101122.00;;;;2062712;28;20289;-56
2021/09/06 01:11:09;;;;;;;13.02;11.73;;;;;22.70;101124.00;;;;2062002;28;20231;-55
2021/09/06 01:12:09;;;;;;;13.20;11.90;;;;;22.70;101122.00;;;;2063361;28;20211;-54
2021/09/06 01:13:10;;;;;;;12.50;10.77;;;;;22.70;101125.00;;;;2063679;28;20211;-54
2021/09/06 01:14:10;;;;;;;12.20;11.00;;;;;22.70;101118.00;;;;2063624;28;20218;-55
2021/09/06 01:15:11;;;;;;;11.47;10.37;;;;;22.70;101116.00;;;;2064265;28;20214;-56
2021/09/06 01:16:11;;;;;;;12.53;10.43;;;;;22.70;101120.00;;;;2063569;28;20218;-56
2021/09/06 01:17:11;;;;;;;12.10;11.00;;;;;22.70;101119.00;;;;2063471;28;20219;-56
2021/09/06 01:18:12;;;;;;;12.10;10.90;;;;;22.70;101116.00;;;;2063625;28;20238;-56
2021/09/06 01:19:12;;;;;;;12.70;11.50;;;;;22.70;101115.00;;;;2062731;28;20217;-54
2021/09/06 01:20:13;;;;;;;12.00;10.90;;;;;22.70;101113.00;;;;2063402;28;20844;-56
2021/09/06 01:21:14;;;;;;;14.07;12.67;;;;;22.70;101122.00;;;;2063272;28;20615;-56
2021/09/06 01:22:14;;;;;;;12.60;11.50;;;;;22.70;101121.00;;;;2063431;28;20218;-54
2021/09/06 01:23:14;;;;;;;12.07;10.87;;;;;22.70;101112.00;;;;2063564;28;20799;-54
2021/09/06 01:24:18;;;;;;;13.20;11.90;;;;;22.70;101122.00;;;;2063452;28;20238;-56
2021/09/06 01:25:18;;;;;;;11.65;10.45;;;;;22.70;101132.00;;;;2071860;28;20314;-57
2021/09/06 01:26:19;;;;;;;13.37;12.07;;;;;22.70;101125.00;;;;2071812;28;20275;-56
2021/09/06 01:27:19;;;;;;;12.97;11.70;;;;;22.70;101114.00;;;;2071996;28;20207;-55
2021/09/06 01:28:19;;;;;;;12.40;11.30;;;;;22.70;101114.00;;;;2071640;28;20780;-55
2021/09/06 01:29:20;;;;;;;12.17;11.07;;;;;22.70;101124.00;;;;2069083;28;20222;-56
2021/09/06 01:30:20;;;;;;;11.80;10.60;;;;;22.70;101108.00;;;;2065899;28;20218;-56
2021/09/06 01:31:22;;;;;;;11.73;10.63;;;;;22.70;101118.00;;;;2063470;28;20210;-54
2021/09/06 01:32:23;;;;;;;12.05;10.80;;;;;22.70;101114.00;;;;2063132;28;20757;-55
2021/09/06 01:33:23;;;;;;;12.03;10.83;;;;;22.60;101110.00;;;;2063609;28;20211;-56
2021/09/06 01:34:24;;;;;;;12.53;11.17;;;;;22.60;101115.00;;;;2063333;28;20219;-56
2021/09/06 01:35:24;;;;;;;11.93;10.93;;;;;22.70;101117.00;;;;2064210;28;20215;-56
2021/09/06 01:36:24;;;;;;;12.93;11.73;;;;;22.60;101116.00;;;;2065712;28;20784;-56
2021/09/06 01:37:25;;;;;;;12.77;11.63;;;;;22.50;101120.00;;;;2072111;28;20210;-57
2021/09/06 01:38:25;;;;;;;12.87;11.63;;;;;22.60;101130.00;;;;2072105;28;20297;-55
2021/09/06 01:39:25;;;;;;;12.50;11.30;;;;;22.60;101115.00;;;;2071742;28;20206;-56
2021/09/06 01:40:26;;;;;;;11.83;10.73;;;;;22.60;101130.00;;;;2071179;28;20276;-56
2021/09/06 01:41:26;;;;;;;11.90;10.80;;;;;22.60;101122.00;;;;2072221;28;20610;-56
2021/09/06 01:42:26;;;;;;;11.00;10.00;;;;;22.60;101125.00;;;;2072080;28;20199;-56
2021/09/06 01:43:27;;;;;;;11.50;10.50;;;;;22.60;101122.00;;;;2072335;28;20206;-56
2021/09/06 01:44:27;;;;;;;11.73;10.73;;;;;22.60;101127.00;;;;2071967;28;20698;-54
2021/09/06 01:45:27;;;;;;;10.83;9.87;;;;;22.60;101125.00;;;;2072282;28;20633;-56
2021/09/06 01:46:29;;;;;;;12.30;11.20;;;;;22.60;101129.00;;;;2072156;28;20205;-55
2021/09/06 01:47:29;;;;;;;11.68;10.65;;;;;22.60;101125.00;;;;2072166;28;20234;-54
2021/09/06 01:48:30;;;;;;;12.30;11.17;;;;;22.60;101128.00;;;;2072257;28;20225;-55
2021/09/06 01:49:30;;;;;;;11.60;10.50;;;;;22.60;101127.00;;;;2071234;28;20300;-57
2021/09/06 01:50:30;;;;;;;11.63;10.63;;;;;22.60;101125.00;;;;2071982;28;20222;-55
2021/09/06 01:51:31;;;;;;;11.40;10.40;;;;;22.60;101129.00;;;;2072169;28;20214;-56
2021/09/06 01:52:31;;;;;;;12.13;11.00;;;;;22.60;101133.00;;;;2072054;28;20222;-57
2021/09/06 01:53:31;;;;;;;11.70;10.60;;;;;22.60;101130.00;;;;2071459;28;20289;-54
2021/09/06 01:54:32;;;;;;;12.00;10.80;;;;;22.60;101131.00;;;;2071382;28;20533;-56
2021/09/06 01:55:32;;;;;;;11.13;10.13;;;;;22.60;101130.00;;;;2072153;28;20217;-56
2021/09/06 01:56:32;;;;;;;11.27;10.17;;;;;22.60;101131.00;;;;2072047;28;20213;-56
2021/09/06 01:57:33;;;;;;;12.60;11.50;;;;;22.60;101133.00;;;;2071675;28;20214;-56
2021/09/06 01:58:33;;;;;;;11.67;10.67;;;;;22.60;101130.00;;;;2072113;28;20640;-56
2021/09/06 01:59:33;;;;;;;12.20;11.10;;;;;22.60;101137.00;;;;2067703;28;20219;-57
2021/09/06 02:00:34;;;;;;;12.13;11.03;;;;;22.60;101138.00;;;;2065936;28;20212;-54
2021/09/06 02:01:34;;;;;;;11.37;10.30;;;;;22.60;101140.00;;;;2063823;28;20285;-56
2021/09/06 02:02:34;;;;;;;11.43;10.43;;;;;22.60;101140.00;;;;2063729;28;20215;-56
2021/09/06 02:03:35;;;;;;;11.77;10.67;;;;;22.60;101137.00;;;;2069709;28;20551;-56
2021/09/06 02:04:35;;;;;;;11.03;10.03;;;;;22.60;101135.00;;;;2072023;28;20228;-56
2021/09/06 02:05:35;;;;;;;11.57;10.57;;;;;22.60;101134.00;;;;2071863;28;20210;-56
2021/09/06 02:06:36;;;;;;;12.00;10.90;;;;;22.60;101136.00;;;;2071815;28;20661;-54
2021/09/06 02:07:36;;;;;;;10.83;9.83;;;;;22.60;101133.00;;;;2065546;28;20244;-56
2021/09/06 02:08:37;;;;;;;10.90;9.90;;;;;22.60;101138.00;;;;2079468;28;20213;-56
2021/09/06 02:09:37;;;;;;;11.23;10.23;;;;;22.60;101134.00;;;;2076186;28;20210;-57
2021/09/06 02:10:37;;;;;;;10.60;9.60;;;;;22.60;101145.00;;;;2071153;28;20245;-56
2021/09/06 02:11:38;;;;;;;11.90;10.80;;;;;22.60;101142.00;;;;2072061;28;20304;-56
2021/09/06 02:12:38;;;;;;;12.00;11.00;;;;;22.60;101139.00;;;;2071924;28;20297;-54
2021/09/06 02:13:38;;;;;;;11.03;10.03;;;;;22.60;101142.00;;;;2071898;28;20222;-56
2021/09/06 02:14:39;;;;;;;11.60;10.60;;;;;22.60;101142.00;;;;2072165;28;20210;-55
2021/09/06 02:15:39;;;;;;;11.67;10.57;;;;;22.60;101144.00;;;;2070964;28;20610;-55
2021/09/06 02:16:39;;;;;;;11.33;10.23;;;;;22.60;101146.00;;;;2071958;28;20218;-56
2021/09/06 02:17:40;;;;;;;12.60;11.37;;;;;22.60;101142.00;;;;2071903;28;20272;-55
2021/09/06 02:18:40;;;;;;;10.60;9.60;;;;;22.60;101103.00;;;;2072046;28;20221;-56
2021/09/06 02:19:40;;;;;;;11.20;10.13;;;;;22.60;101148.00;;;;2071650;28;20705;-54
2021/09/06 02:20:41;;;;;;;11.83;10.80;;;;;22.60;101140.00;;;;2071840;28;20214;-56
2021/09/06 02:21:41;;;;;;;11.50;10.40;;;;;22.60;101146.00;;;;2071804;28;20729;-55
2021/09/06 02:22:41;;;;;;;10.93;9.97;;;;;22.60;101155.00;;;;2071476;28;20572;-55
2021/09/06 02:23:42;;;;;;;11.97;10.83;;;;;22.50;101142.00;;;;2071817;28;20210;-57
2021/09/06 02:24:42;;;;;;;12.60;11.40;;;;;22.50;101147.00;;;;2070988;28;20226;-56
2021/09/06 02:25:42;;;;;;;12.93;11.73;;;;;22.50;101142.00;;;;2071158;28;20694;-54
2021/09/06 02:26:43;;;;;;;11.50;10.50;;;;;22.50;101144.00;;;;2071008;28;20214;-55
2021/09/06 02:27:43;;;;;;;10.60;9.67;;;;;22.50;101134.00;;;;2071656;28;20202;-56
2021/09/06 02:28:46;;;;;;;11.50;10.50;;;;;22.60;101144.00;;;;2071167;28;20225;-56
2021/09/06 02:29:46;;;;;;;12.25;11.15;;;;;22.50;101134.00;;;;2067006;28;20684;-57
2021/09/06 02:30:46;;;;;;;11.60;10.50;;;;;22.50;101136.00;;;;2063842;28;20223;-54
2021/09/06 02:31:47;;;;;;;11.47;10.43;;;;;22.60;101140.00;;;;2061874;28;20221;-55
2021/09/06 02:32:47;;;;;;;12.00;10.90;;;;;22.50;101141.00;;;;2062830;28;20613;-55
2021/09/06 02:33:47;;;;;;;11.43;10.43;;;;;22.50;101138.00;;;;2063329;28;20222;-56
2021/09/06 02:34:48;;;;;;;11.40;10.40;;;;;22.50;101135.00;;;;2063140;28;20211;-56
2021/09/06 02:35:48;;;;;;;11.33;10.33;;;;;22.50;101141.00;;;;2063208;28;20298;-56
2021/09/06 02:36:49;;;;;;;11.70;10.60;;;;;22.40;101137.00;;;;2063443;28;20229;-56
2021/09/06 02:37:49;;;;;;;11.73;10.63;;;;;22.50;101134.00;;;;2062777;28;20223;-54
2021/09/06 02:38:49;;;;;;;15.43;11.33;;;;;22.50;101139.00;;;;2062846;28;20222;-54
2021/09/06 02:39:50;;;;;;;11.43;10.37;;;;;22.50;101138.00;;;;2062932;28;20226;-54
2021/09/06 02:40:50;;;;;;;11.13;10.13;;;;;22.50;101143.00;;;;2063174;28;20223;-54
2021/09/06 02:41:51;;;;;;;11.17;10.17;;;;;22.50;101141.00;;;;2063186;28;20321;-56
2021/09/06 02:42:51;;;;;;;11.83;10.70;;;;;22.50;101148.00;;;;2063173;28;20738;-54
2021/09/06 02:43:51;;;;;;;10.80;9.80;;;;;22.50;101139.00;;;;2063066;28;20245;-54
2021/09/06 02:44:52;;;;;;;11.57;10.47;;;;;22.50;101145.00;;;;2063202;28;20219;-56
2021/09/06 02:45:52;;;;;;;11.30;10.30;;;;;22.50;101144.00;;;;2063470;28;20207;-56
2021/09/06 02:46:52;;;;;;;10.57;9.63;;;;;22.50;101134.00;;;;2063405;28;20223;-55
2021/09/06 02:47:53;;;;;;;10.87;9.90;;;;;22.50;101142.00;;;;2062526;28;20298;-56
2021/09/06 02:48:53;;;;;;;10.93;9.93;;;;;22.50;101145.00;;;;2062469;28;20218;-55
2021/09/06 02:49:55;;;;;;;12.03;11.03;;;;;22.50;101143.00;;;;2063210;28;20553;-54
2021/09/06 02:50:55;;;;;;;12.07;10.98;;;;;22.50;101141.00;;;;2062798;28;20286;-56
2021/09/06 02:51:55;;;;;;;12.23;11.13;;;;;22.50;101146.00;;;;2063117;28;20214;-54
2021/09/06 02:52:56;;;;;;;11.50;10.40;;;;;22.50;101141.00;;;;2062943;28;20215;-57
2021/09/06 02:53:56;;;;;;;11.50;10.50;;;;;22.50;101150.00;;;;2062779;28;20211;-56
2021/09/06 02:54:57;;;;;;;10.60;9.60;;;;;22.50;101139.00;;;;2062882;28;20262;-56
2021/09/06 02:55:57;;;;;;;11.70;10.60;;;;;22.50;101142.00;;;;2062938;28;20709;-55
2021/09/06 02:56:57;;;;;;;11.03;10.03;;;;;22.50;101136.00;;;;2063200;28;20294;-56
2021/09/06 02:57:58;;;;;;;11.03;10.03;;;;;22.50;101130.00;;;;2063217;28;20634;-54
2021/09/06 02:58:58;;;;;;;10.67;9.63;;;;;22.50;101137.00;;;;2061159;28;20215;-56
2021/09/06 02:59:59;;;;;;;10.73;9.73;;;;;22.50;101137.00;;;;2065626;28;20466;-54
2021/09/06 03:00:59;;;;;;;10.70;9.70;;;;;22.50;101142.00;;;;2065985;28;20226;-53
2021/09/06 03:02:00;;;;;;;10.50;9.60;;;;;22.50;101140.00;;;;2062929;28;20222;-54
2021/09/06 03:03:00;;;;;;;12.07;11.03;;;;;22.50;101140.00;;;;2062815;28;20215;-56
2021/09/06 03:04:00;;;;;;;10.47;9.53;;;;;22.50;101141.00;;;;2063074;28;20225;-56
2021/09/06 03:05:01;;;;;;;11.77;10.77;;;;;22.50;101134.00;;;;2062598;28;20215;-56
2021/09/06 03:06:01;;;;;;;11.10;10.10;;;;;22.50;101139.00;;;;2062667;28;20971;-56
2021/09/06 03:07:02;;;;;;;11.30;10.20;;;;;22.50;101132.00;;;;2063098;28;20265;-56
2021/09/06 03:08:02;;;;;;;10.20;9.30;;;;;22.50;101139.00;;;;2070323;28;20214;-54
2021/09/06 03:09:02;;;;;;;11.27;10.27;;;;;22.50;101142.00;;;;2070164;28;20736;-55
2021/09/06 03:10:03;;;;;;;11.80;10.70;;;;;22.50;101137.00;;;;2070145;28;20633;-56
2021/09/06 03:11:03;;;;;;;11.27;10.27;;;;;22.50;101135.00;;;;2066058;28;20825;-56
2021/09/06 03:12:04;;;;;;;11.83;10.73;;;;;22.50;101141.00;;;;2062954;28;20315;-57
2021/09/06 03:13:04;;;;;;;9.90;9.00;;;;;22.50;101139.00;;;;2062868;28;20684;-56
2021/09/06 03:14:05;;;;;;;10.77;9.80;;;;;22.50;101127.00;;;;2063060;28;20269;-56
2021/09/06 03:15:05;;;;;;;11.47;10.43;;;;;22.50;101135.00;;;;2063416;28;20211;-56
2021/09/06 03:16:06;;;;;;;11.83;10.77;;;;;22.50;101137.00;;;;2063540;28;20306;-56
2021/09/06 03:17:06;;;;;;;10.77;9.67;;;;;22.50;101142.00;;;;2063437;28;20215;-54
2021/09/06 03:18:06;;;;;;;11.30;10.30;;;;;22.50;101139.00;;;;2063469;28;20560;-56
2021/09/06 03:19:07;;;;;;;11.17;10.20;;;;;22.50;101139.00;;;;2063056;28;20314;-54
2021/09/06 03:20:07;;;;;;;11.07;10.07;;;;;22.50;101140.00;;;;2063408;28;20211;-54
2021/09/06 03:21:08;;;;;;;10.70;9.70;;;;;22.50;101139.00;;;;2063112;28;20219;-56
2021/09/06 03:22:08;;;;;;;12.27;11.17;;;;;22.50;101136.00;;;;2063259;28;20294;-57
2021/09/06 03:23:09;;;;;;;12.00;10.90;;;;;22.40;101139.00;;;;2063347;28;20219;-53
2021/09/06 03:24:09;;;;;;;10.47;9.50;;;;;22.40;101140.00;;;;2063293;28;20223;-55
2021/09/06 03:25:10;;;;;;;11.30;10.27;;;;;22.50;101136.00;;;;2063238;28;20249;-55
2021/09/06 03:26:10;;;;;;;10.37;9.47;;;;;22.50;101139.00;;;;2062957;28;20878;-55
2021/09/06 03:27:10;;;;;;;10.50;9.57;;;;;22.40;101139.00;;;;2066691;28;20630;-55
2021/09/06 03:28:11;;;;;;;11.13;10.13;;;;;22.40;101137.00;;;;2063391;28;20238;-53
2021/09/06 03:29:11;;;;;;;11.60;10.50;;;;;22.50;101140.00;;;;2062371;28;20249;-55
2021/09/06 03:30:12;;;;;;;10.33;9.37;;;;;22.50;101144.00;;;;2067606;28;20665;-55
2021/09/06 03:31:12;;;;;;;11.03;10.10;;;;;22.50;101143.00;;;;2067897;28;22172;-57
2021/09/06 03:32:13;;;;;;;10.40;9.50;;;;;22.50;101141.00;;;;2062398;28;20703;-55
2021/09/06 03:33:14;;;;;;;10.07;9.17;;;;;22.50;101142.00;;;;2061726;28;20219;-56
2021/09/06 03:34:14;;;;;;;11.37;10.37;;;;;22.40;101140.00;;;;2058662;28;20218;-56
2021/09/06 03:35:15;;;;;;;11.60;10.57;;;;;22.40;101146.00;;;;2069908;28;20453;-57
2021/09/06 03:36:15;;;;;;;11.37;10.37;;;;;22.40;101147.00;;;;2064099;28;20222;-54
2021/09/06 03:37:15;;;;;;;10.40;9.50;;;;;22.40;101144.00;;;;2067646;28;20223;-55
2021/09/06 03:38:16;;;;;;;11.80;10.60;;;;;22.40;101145.00;;;;2069873;28;20226;-56
2021/09/06 03:39:16;;;;;;;10.77;9.77;;;;;22.40;101134.00;;;;2070662;28;20222;-56
2021/09/06 03:40:17;;;;;;;11.37;10.20;;;;;22.40;101134.00;;;;2070597;28;20279;-54
2021/09/06 03:41:18;;;;;;;11.13;10.10;;;;;22.40;101136.00;;;;2064257;28;20318;-55
2021/09/06 03:42:19;;;;;;;11.20;10.20;;;;;22.40;101140.00;;;;2062551;28;20215;-56
2021/09/06 03:43:19;;;;;;;10.70;9.70;;;;;22.40;101140.00;;;;2062460;28;20475;-54
2021/09/06 03:44:20;;;;;;;11.20;10.20;;;;;22.40;101144.00;;;;2062551;28;20297;-54
2021/09/06 03:45:20;;;;;;;11.20;10.20;;;;;22.50;101136.00;;;;2062583;28;20706;-56
2021/09/06 03:46:20;;;;;;;11.37;10.37;;;;;22.40;101140.00;;;;2062776;28;20218;-57
2021/09/06 03:47:21;;;;;;;11.57;10.57;;;;;22.40;101142.00;;;;2062482;28;20591;-57
2021/09/06 03:48:21;;;;;;;11.40;10.40;;;;;22.40;101141.00;;;;2062836;28;20210;-56
2021/09/06 03:49:21;;;;;;;11.50;10.50;;;;;22.40;101142.00;;;;2062022;28;20342;-54
2021/09/06 03:50:22;;;;;;;11.00;10.10;;;;;22.40;101139.00;;;;2062578;28;20265;-56
2021/09/06 03:51:22;;;;;;;10.90;9.90;;;;;22.40;101140.00;;;;2062628;28;20226;-56
2021/09/06 03:52:22;;;;;;;10.90;9.90;;;;;22.40;101145.00;;;;2062276;28;20225;-56
2021/09/06 03:53:23;;;;;;;11.53;10.53;;;;;22.40;101144.00;;;;2062582;28;20293;-56
2021/09/06 03:54:23;;;;;;;11.70;10.70;;;;;22.40;101142.00;;;;2062617;28;20675;-57
2021/09/06 03:55:23;;;;;;;11.20;10.20;;;;;22.40;101146.00;;;;2062639;28;20556;-55
2021/09/06 03:56:24;;;;;;;10.73;9.80;;;;;22.40;101146.00;;;;2062563;28;20215;-54
2021/09/06 03:57:24;;;;;;;10.67;9.70;;;;;22.40;101144.00;;;;2068837;28;20679;-56
2021/09/06 03:58:25;;;;;;;10.40;9.50;;;;;22.40;101146.00;;;;2070113;28;20548;-56
2021/09/06 03:59:25;;;;;;;11.90;10.80;;;;;22.40;101145.00;;;;2067428;28;20295;-56
2021/09/06 04:00:25;;;;;;;11.73;10.73;;;;;22.40;101139.00;;;;2066146;28;20219;-55
2021/09/06 04:01:26;;;;;;;10.87;9.77;;;;;22.40;101149.00;;;;2062781;28;20219;-54
2021/09/06 04:02:26;;;;;;;11.00;9.90;;;;;22.40;101146.00;;;;2062980;28;20239;-55
2021/09/06 04:03:26;;;;;;;10.60;9.67;;;;;22.40;101149.00;;;;2062495;28;20277;-56
2021/09/06 04:04:27;;;;;;;10.57;9.67;;;;;22.40;101153.00;;;;2063137;28;20688;-55
2021/09/06 04:05:27;;;;;;;10.47;9.57;;;;;22.40;101157.00;;;;2063007;28;20294;-57
2021/09/06 04:06:27;;;;;;;10.80;9.80;;;;;22.40;101150.00;;;;2063162;28;20210;-56
2021/09/06 04:07:28;;;;;;;10.27;9.40;;;;;22.40;101153.00;;;;2063246;28;20218;-54
2021/09/06 04:08:28;;;;;;;10.87;9.97;;;;;22.40;101148.00;;;;2063137;28;20583;-55
2021/09/06 04:09:29;;;;;;;10.90;10.00;;;;;22.40;101155.00;;;;2061376;28;20230;-54
2021/09/06 04:10:30;;;;;;;11.50;10.40;;;;;22.40;101149.00;;;;2063140;28;20231;-56
2021/09/06 04:11:30;;;;;;;10.73;9.73;;;;;22.40;101160.00;;;;2062961;28;20223;-54
2021/09/06 04:12:30;;;;;;;11.27;10.23;;;;;22.40;101154.00;;;;2062765;28;20223;-55
2021/09/06 04:13:31;;;;;;;10.83;9.83;;;;;22.40;101151.00;;;;2062116;28;20621;-59
2021/09/06 04:14:34;;;;;;;11.40;10.20;;;;;22.40;101156.00;;;;2064803;28;20207;-56
2021/09/06 04:15:34;;;;;;;11.68;10.55;;;;;22.40;101154.00;;;;2070503;28;20829;-54
2021/09/06 04:16:35;;;;;;;11.70;10.60;;;;;22.40;101153.00;;;;2070285;28;20314;-56
2021/09/06 04:17:36;;;;;;;11.60;10.40;;;;;22.40;101155.00;;;;2070909;28;20559;-55
2021/09/06 04:18:36;;;;;;;10.80;9.80;;;;;22.40;101162.00;;;;2071143;28;20210;-54
2021/09/06 04:19:37;;;;;;;11.10;10.10;;;;;22.40;101160.00;;;;2070622;28;20206;-56
2021/09/06 04:20:37;;;;;;;10.73;9.73;;;;;22.40;101160.00;;;;2070866;28;20730;-57
2021/09/06 04:21:38;;;;;;;10.40;9.50;;;;;22.40;101159.00;;;;2070922;28;20927;-56
2021/09/06 04:22:39;;;;;;;11.10;10.10;;;;;22.40;101164.00;;;;2070396;28;20611;-56
2021/09/06 04:23:39;;;;;;;11.35;10.35;;;;;22.40;101154.00;;;;2070224;28;20313;-54
2021/09/06 04:24:40;;;;;;;10.77;9.87;;;;;22.40;101165.00;;;;2070872;28;20227;-54
2021/09/06 04:25:40;;;;;;;10.80;9.90;;;;;22.40;101167.00;;;;2062918;28;20226;-56
2021/09/06 04:26:40;;;;;;;11.17;10.20;;;;;22.40;101163.00;;;;2063042;28;20222;-55
2021/09/06 04:27:41;;;;;;;10.93;9.93;;;;;22.40;101170.00;;;;2062855;28;20219;-55
2021/09/06 04:28:41;;;;;;;10.70;9.80;;;;;22.40;101168.00;;;;2062744;28;20226;-56
2021/09/06 04:29:42;;;;;;;10.00;9.10;;;;;22.30;101164.00;;;;2064342;28;20722;-55
2021/09/06 04:30:42;;;;;;;12.13;11.00;;;;;22.40;101164.00;;;;2063203;28;20914;-55
2021/09/06 04:31:42;;;;;;;11.27;10.00;;;;;22.40;101165.00;;;;2062716;28;20219;-56
2021/09/06 04:32:43;;;;;;;11.57;10.57;;;;;22.40;101164.00;;;;2062879;28;20725;-56
2021/09/06 04:33:43;;;;;;;11.30;10.30;;;;;22.40;101172.00;;;;2062830;28;20217;-55
2021/09/06 04:34:43;;;;;;;10.90;9.90;;;;;22.40;101165.00;;;;2062809;28;20222;-56
2021/09/06 04:35:44;;;;;;;11.57;10.47;;;;;22.40;101170.00;;;;2062779;28;20207;-56
2021/09/06 04:36:44;;;;;;;10.20;9.30;;;;;22.40;101172.00;;;;2062671;28;20211;-56
2021/09/06 04:37:45;;;;;;;10.97;10.00;;;;;22.30;101170.00;;;;2062545;28;20211;-57
2021/09/06 04:38:45;;;;;;;10.70;9.70;;;;;22.30;101166.00;;;;2062465;28;20215;-54
2021/09/06 04:39:45;;;;;;;10.63;9.70;;;;;22.40;101164.00;;;;2062391;28;20215;-55
2021/09/06 04:40:46;;;;;;;11.50;10.40;;;;;22.40;101170.00;;;;2062856;28;20232;-56
2021/09/06 04:41:46;;;;;;;10.20;9.30;;;;;22.30;101173.00;;;;2062770;28;20211;-56
2021/09/06 04:42:46;;;;;;;11.57;10.47;;;;;22.30;101167.00;;;;2062940;28;20687;-56
2021/09/06 04:43:48;;;;;;;10.97;9.97;;;;;22.30;101178.00;;;;2062808;28;20211;-56
2021/09/06 04:44:48;;;;;;;11.88;10.68;;;;;22.30;101172.00;;;;2062704;28;20223;-56
2021/09/06 04:45:48;;;;;;;10.90;9.90;;;;;22.40;101175.00;;;;2064856;28;20350;-56
2021/09/06 04:46:49;;;;;;;13.83;9.80;;;;;22.40;101173.00;;;;2065236;28;20246;-56
2021/09/06 04:47:49;;;;;;;11.37;10.27;;;;;22.40;101168.00;;;;2065624;28;20219;-54
2021/09/06 04:48:49;;;;;;;11.37;10.37;;;;;22.30;101182.00;;;;2064593;28;20937;-55
2021/09/06 04:49:50;;;;;;;10.70;9.80;;;;;22.30;101176.00;;;;2065356;28;20218;-56
2021/09/06 04:50:50;;;;;;;11.57;10.50;;;;;22.30;101168.00;;;;2065446;28;20277;-54
2021/09/06 04:51:50;;;;;;;11.07;10.07;;;;;22.30;101176.00;;;;2065416;28;20214;-54